createdAt,value
2018-03-06T00:02:22.050Z,1.60
2018-03-06T00:04:49.538Z,1.50
2018-03-06T00:07:17.027Z,1.60
2018-03-06T00:09:44.522Z,1.50
2018-03-06T00:12:12.042Z,1.50
2018-03-06T00:14:40.294Z,1.50
2018-03-06T00:17:07.801Z,1.50
2018-03-06T00:19:35.294Z,1.50
2018-03-06T00:22:02.806Z,1.50
2018-03-06T00:24:31.064Z,1.50
2018-03-06T00:26:59.351Z,1.40
2018-03-06T00:29:26.858Z,1.40
2018-03-06T00:31:54.366Z,1.40
2018-03-06T00:34:21.862Z,1.30
2018-03-06T00:36:49.375Z,1.30
2018-03-06T00:39:17.641Z,1.30
2018-03-06T00:41:45.158Z,1.30
2018-03-06T00:44:12.645Z,1.30
2018-03-06T00:46:40.164Z,1.30
2018-03-06T00:49:07.651Z,1.30
2018-03-06T00:51:35.148Z,1.20
2018-03-06T00:54:03.398Z,1.20
2018-03-06T00:56:30.893Z,1.20
2018-03-06T00:58:59.164Z,1.10
2018-03-06T01:01:26.651Z,1.10
2018-03-06T01:03:54.171Z,1.10
2018-03-06T01:06:22.428Z,1.10
2018-03-06T01:08:50.711Z,1.00
2018-03-06T01:11:18.965Z,1.10
2018-03-06T01:13:46.473Z,1.10
2018-03-06T01:16:13.962Z,1.00
2018-03-06T01:18:41.491Z,1.00
2018-03-06T01:21:08.963Z,1.00
2018-03-06T01:23:36.477Z,1.00
2018-03-06T01:26:04.750Z,1.00
2018-03-06T01:28:32.306Z,1.00
2018-03-06T01:30:59.790Z,1.00
2018-03-06T01:33:28.071Z,0.90
2018-03-06T01:38:48.479Z,0.90
2018-03-06T01:41:15.969Z,0.90
2018-03-06T01:43:43.473Z,0.90
2018-03-06T01:46:10.944Z,0.80
2018-03-06T01:48:39.217Z,0.80
2018-03-06T01:51:07.482Z,0.80
2018-03-06T01:53:34.995Z,0.80
2018-03-06T01:56:02.496Z,0.80
2018-03-06T01:58:30.061Z,0.80
2018-03-06T02:00:57.541Z,0.80
2018-03-06T02:03:25.041Z,0.70
2018-03-06T02:05:52.518Z,0.80
2018-03-06T02:08:20.028Z,0.80
2018-03-06T02:10:47.530Z,0.60
2018-03-06T02:13:15.042Z,0.70
2018-03-06T02:15:42.530Z,0.70
2018-03-06T02:18:10.018Z,0.70
2018-03-06T02:20:37.609Z,0.70
2018-03-06T02:23:05.100Z,0.60
2018-03-06T02:25:36.341Z,0.70
2018-03-06T02:28:03.844Z,0.70
2018-03-06T02:30:32.117Z,0.60
2018-03-06T02:32:59.611Z,0.60
2018-03-06T02:35:27.127Z,0.60
2018-03-06T02:37:54.626Z,0.60
2018-03-06T02:40:22.181Z,0.60
2018-03-06T02:42:49.670Z,0.60
2018-03-06T02:45:17.180Z,0.60
2018-03-06T02:47:45.466Z,0.50
2018-03-06T02:50:13.735Z,0.40
2018-03-06T02:52:41.989Z,0.50
2018-03-06T02:55:09.496Z,0.50
2018-03-06T02:57:36.976Z,0.50
2018-03-06T03:00:04.491Z,0.40
2018-03-06T03:02:32.760Z,0.40
2018-03-06T03:05:01.041Z,0.40
2018-03-06T03:07:29.293Z,0.40
2018-03-06T03:09:56.785Z,0.40
2018-03-06T03:12:24.279Z,0.40
2018-03-06T03:14:51.795Z,0.40
2018-03-06T03:17:20.052Z,0.40
2018-03-06T03:19:47.559Z,0.40
2018-03-06T03:22:15.063Z,0.40
2018-03-06T03:24:42.554Z,0.40
2018-03-06T03:27:10.058Z,0.40
2018-03-06T03:29:37.555Z,0.30
2018-03-06T03:32:05.817Z,0.30
2018-03-06T03:34:34.150Z,0.30
2018-03-06T03:37:01.652Z,0.30
2018-03-06T03:39:29.157Z,0.30
2018-03-06T03:41:56.657Z,0.30
2018-03-06T03:44:24.144Z,0.30
2018-03-06T03:46:52.411Z,0.30
2018-03-06T03:49:20.666Z,0.30
2018-03-06T03:51:48.171Z,0.30
2018-03-06T03:54:15.666Z,0.30
2018-03-06T03:56:44.080Z,0.20
2018-03-06T03:59:12.341Z,0.20
2018-03-06T04:01:41.344Z,0.20
2018-03-06T04:04:08.837Z,0.20
2018-03-06T04:06:36.332Z,0.10
2018-03-06T04:09:03.834Z,0.10
2018-03-06T04:11:32.127Z,0.10
2018-03-06T04:13:59.613Z,0.10
2018-03-06T04:16:27.142Z,0.10
2018-03-06T04:18:54.656Z,0.10
2018-03-06T04:21:22.161Z,0.10
2018-03-06T04:23:50.017Z,0.10
2018-03-06T04:26:18.281Z,0.10
2018-03-06T04:28:46.534Z,0.10
2018-03-06T04:31:14.046Z,0.10
2018-03-06T04:33:41.535Z,0.00
2018-03-06T04:36:09.033Z,0.10
2018-03-06T04:38:37.311Z,0.00
2018-03-06T04:41:05.582Z,0.00
2018-03-06T04:43:33.929Z,0.00
2018-03-06T04:46:01.412Z,0.00
2018-03-06T04:48:29.710Z,0.00
2018-03-06T04:50:58.895Z,0.00
2018-03-06T04:53:27.160Z,0.00
2018-03-06T04:55:54.658Z,0.00
2018-03-06T04:58:22.169Z,0.00
2018-03-06T05:00:49.682Z,-0.10
2018-03-06T05:03:17.200Z,0.00
2018-03-06T05:05:45.472Z,-0.10
2018-03-06T05:08:13.003Z,-0.10
2018-03-06T05:10:40.492Z,-0.10
2018-03-06T05:13:09.084Z,-0.20
2018-03-06T05:15:37.338Z,-0.20
2018-03-06T05:18:04.844Z,-0.20
2018-03-06T05:20:32.350Z,-0.20
2018-03-06T05:23:00.641Z,-0.20
2018-03-06T05:25:28.224Z,-0.20
2018-03-06T05:27:56.505Z,-0.20
2018-03-06T05:30:24.022Z,-0.20
2018-03-06T05:32:51.514Z,-0.20
2018-03-06T05:35:20.103Z,-0.10
2018-03-06T05:37:47.622Z,-0.20
2018-03-06T05:40:15.109Z,-0.20
2018-03-06T05:42:43.395Z,-0.20
2018-03-06T05:45:10.901Z,-0.20
2018-03-06T05:47:40.071Z,-0.20
2018-03-06T05:50:07.566Z,-0.20
2018-03-06T05:52:35.064Z,-0.20
2018-03-06T05:55:03.316Z,-0.20
2018-03-06T05:57:30.824Z,-0.20
2018-03-06T05:59:58.324Z,-0.30
2018-03-06T06:02:27.357Z,-0.20
2018-03-06T06:04:56.616Z,-0.20
2018-03-06T06:07:24.111Z,-0.20
2018-03-06T06:09:52.383Z,-0.20
2018-03-06T06:12:20.630Z,-0.20
2018-03-06T06:14:48.126Z,-0.20
2018-03-06T06:17:16.376Z,-0.20
2018-03-06T06:19:43.874Z,-0.20
2018-03-06T06:22:11.372Z,-0.20
2018-03-06T06:24:38.862Z,-0.20
2018-03-06T06:27:07.132Z,-0.20
2018-03-06T06:29:35.640Z,-0.20
2018-03-06T06:32:03.376Z,-0.10
2018-03-06T06:34:30.856Z,-0.10
2018-03-06T06:36:59.113Z,-0.10
2018-03-06T06:39:32.269Z,-0.10
2018-03-06T06:41:59.746Z,0.00
2018-03-06T06:44:27.245Z,0.00
2018-03-06T06:46:54.734Z,0.00
2018-03-06T06:49:22.222Z,0.10
2018-03-06T06:51:49.714Z,0.10
2018-03-06T06:54:17.958Z,0.20
2018-03-06T06:56:45.459Z,0.20
2018-03-06T06:59:12.956Z,0.20
2018-03-06T07:01:40.436Z,0.20
2018-03-06T07:04:07.924Z,0.30
2018-03-06T07:06:35.396Z,0.30
2018-03-06T07:09:02.885Z,0.30
2018-03-06T07:11:30.365Z,0.40
2018-03-06T07:13:57.870Z,0.40
2018-03-06T07:16:25.360Z,0.40
2018-03-06T07:18:52.829Z,0.50
2018-03-06T07:21:21.845Z,0.50
2018-03-06T07:23:50.094Z,0.60
2018-03-06T07:26:17.585Z,0.60
2018-03-06T07:28:45.838Z,0.70
2018-03-06T07:31:13.322Z,0.70
2018-03-06T07:33:41.598Z,0.80
2018-03-06T07:36:09.877Z,0.90
2018-03-06T07:38:38.126Z,0.90
2018-03-06T07:41:05.635Z,0.90
2018-03-06T07:43:33.106Z,1.00
2018-03-06T07:46:00.588Z,1.00
2018-03-06T07:48:28.087Z,1.10
2018-03-06T07:50:56.359Z,1.20
2018-03-06T07:53:24.605Z,1.20
2018-03-06T07:55:52.185Z,1.20
2018-03-06T07:58:19.681Z,1.30
2018-03-06T08:00:47.166Z,1.30
2018-03-06T08:03:14.669Z,1.30
2018-03-06T08:05:42.948Z,1.50
2018-03-06T08:08:11.237Z,1.60
2018-03-06T08:10:38.736Z,1.50
2018-03-06T08:13:06.208Z,1.70
2018-03-06T08:15:33.714Z,1.70
2018-03-06T08:18:01.204Z,1.80
2018-03-06T08:20:28.709Z,1.80
2018-03-06T08:22:56.981Z,1.90
2018-03-06T08:25:25.242Z,2.00
2018-03-06T08:27:52.719Z,2.00
2018-03-06T08:30:21.900Z,2.20
2018-03-06T08:32:49.372Z,2.20
2018-03-06T08:35:17.607Z,2.30
2018-03-06T08:37:45.097Z,2.30
2018-03-06T08:40:13.339Z,2.50
2018-03-06T08:42:40.827Z,2.50
2018-03-06T08:45:09.088Z,2.60
2018-03-06T08:47:36.577Z,2.60
2018-03-06T08:50:04.826Z,2.70
2018-03-06T08:52:32.329Z,2.70
2018-03-06T08:54:59.809Z,2.80
2018-03-06T08:57:27.292Z,2.80
2018-03-06T08:59:54.777Z,2.90
2018-03-06T09:02:23.036Z,3.00
2018-03-06T09:04:50.528Z,3.00
2018-03-06T09:07:18.790Z,3.20
2018-03-06T09:09:47.056Z,3.20
2018-03-06T09:12:14.568Z,3.20
2018-03-06T09:14:42.085Z,3.30
2018-03-06T09:17:10.358Z,3.50
2018-03-06T09:19:38.612Z,3.60
2018-03-06T09:22:06.103Z,3.60
2018-03-06T09:24:34.342Z,3.70
2018-03-06T09:27:01.852Z,3.70
2018-03-06T09:29:29.333Z,3.80
2018-03-06T09:31:56.840Z,3.90
2018-03-06T09:34:24.322Z,3.90
2018-03-06T09:36:51.830Z,4.00
2018-03-06T09:39:19.312Z,4.10
2018-03-06T09:41:47.551Z,4.30
2018-03-06T09:44:15.153Z,4.30
2018-03-06T09:46:43.389Z,4.50
2018-03-06T09:49:10.985Z,4.50
2018-03-06T09:51:39.242Z,4.70
2018-03-06T09:54:06.771Z,4.70
2018-03-06T09:56:34.260Z,4.80
2018-03-06T09:59:01.754Z,4.90
2018-03-06T10:01:29.242Z,4.90
2018-03-06T10:03:56.733Z,5.00
2018-03-06T10:06:24.225Z,5.00
2018-03-06T10:08:53.393Z,5.20
2018-03-06T10:11:20.864Z,5.20
2018-03-06T10:13:49.122Z,5.20
2018-03-06T10:16:16.613Z,5.20
2018-03-06T10:18:44.868Z,5.40
2018-03-06T10:21:12.346Z,5.40
2018-03-06T10:23:40.621Z,5.50
2018-03-06T10:26:08.862Z,5.50
2018-03-06T10:28:36.380Z,5.50
2018-03-06T10:31:03.898Z,5.50
2018-03-06T10:33:32.270Z,5.70
2018-03-06T10:35:59.749Z,5.70
2018-03-06T10:38:28.021Z,5.90
2018-03-06T10:40:56.283Z,6.00
2018-03-06T10:43:24.534Z,6.10
2018-03-06T10:45:52.004Z,6.10
2018-03-06T10:48:19.506Z,6.10
2018-03-06T10:50:46.971Z,6.20
2018-03-06T10:53:14.504Z,6.30
2018-03-06T10:55:42.762Z,6.40
2018-03-06T10:58:10.232Z,6.30
2018-03-06T11:00:44.288Z,6.40
2018-03-06T11:03:11.764Z,6.40
2018-03-06T11:05:39.265Z,6.50
2018-03-06T11:08:07.549Z,6.50
2018-03-06T11:10:35.808Z,6.60
2018-03-06T11:13:04.049Z,6.70
2018-03-06T11:15:31.539Z,6.70
2018-03-06T11:17:59.872Z,6.80
2018-03-06T11:20:27.369Z,6.80
2018-03-06T11:22:54.841Z,6.80
2018-03-06T11:25:24.032Z,6.90
2018-03-06T11:27:52.264Z,7.00
2018-03-06T11:30:19.759Z,6.90
2018-03-06T11:32:48.750Z,7.10
2018-03-06T11:35:16.276Z,7.10
2018-03-06T11:37:43.750Z,7.10
2018-03-06T11:40:11.254Z,7.20
2018-03-06T11:42:39.502Z,7.20
2018-03-06T11:45:07.008Z,7.10
2018-03-06T11:47:34.491Z,7.20
2018-03-06T11:50:01.973Z,7.30
2018-03-06T11:52:29.454Z,7.40
2018-03-06T11:54:57.717Z,7.50
2018-03-06T11:57:25.284Z,7.50
2018-03-06T11:59:53.542Z,7.50
2018-03-06T12:02:21.026Z,7.50
2018-03-06T12:04:49.276Z,7.80
2018-03-06T12:07:16.748Z,7.70
2018-03-06T12:09:45.006Z,7.90
2018-03-06T12:12:12.498Z,7.90
2018-03-06T12:14:40.759Z,8.10
2018-03-06T12:17:09.005Z,8.10
2018-03-06T12:19:36.485Z,8.10
2018-03-06T12:22:04.738Z,8.30
2018-03-06T12:24:32.226Z,8.30
2018-03-06T12:27:00.496Z,8.30
2018-03-06T12:29:27.970Z,8.30
2018-03-06T12:31:56.233Z,8.40
2018-03-06T12:34:24.478Z,8.50
2018-03-06T12:36:52.740Z,8.50
2018-03-06T12:39:20.243Z,8.50
2018-03-06T12:41:49.424Z,8.60
2018-03-06T12:44:16.907Z,8.60
2018-03-06T12:46:45.191Z,8.70
2018-03-06T12:49:12.673Z,8.70
2018-03-06T12:51:40.165Z,8.70
2018-03-06T12:54:07.642Z,8.80
2018-03-06T12:56:35.133Z,8.90
2018-03-06T12:59:02.625Z,9.00
2018-03-06T13:01:30.102Z,8.80
2018-03-06T13:03:58.498Z,8.70
2018-03-06T13:06:26.754Z,8.80
2018-03-06T13:08:54.243Z,8.80
2018-03-06T13:11:22.498Z,8.90
2018-03-06T13:13:49.983Z,8.80
2018-03-06T13:16:17.485Z,8.90
2018-03-06T13:18:44.990Z,8.80
2018-03-06T13:21:13.241Z,8.80
2018-03-06T13:23:40.733Z,8.80
2018-03-06T13:26:08.990Z,8.80
2018-03-06T13:28:37.228Z,8.80
2018-03-06T13:31:04.711Z,8.80
2018-03-06T13:33:32.198Z,8.80
2018-03-06T13:36:00.445Z,8.70
2018-03-06T13:38:27.950Z,8.60
2018-03-06T13:40:55.439Z,8.70
2018-03-06T13:43:22.942Z,8.70
2018-03-06T13:45:51.212Z,8.70
2018-03-06T13:48:19.486Z,8.70
2018-03-06T13:50:47.740Z,8.70
2018-03-06T13:53:15.239Z,8.70
2018-03-06T13:55:42.734Z,8.70
2018-03-06T13:58:10.229Z,8.70
2018-03-06T14:00:37.732Z,8.60
2018-03-06T14:03:05.256Z,8.60
2018-03-06T14:05:33.516Z,8.60
2018-03-06T14:08:01.007Z,8.50
2018-03-06T14:10:28.497Z,8.50
2018-03-06T14:12:55.989Z,8.50
2018-03-06T14:15:23.472Z,8.40
2018-03-06T14:17:51.730Z,8.40
2018-03-06T14:20:19.214Z,8.40
2018-03-06T14:22:47.455Z,8.40
2018-03-06T14:25:14.932Z,8.30
2018-03-06T14:27:43.193Z,8.30
2018-03-06T14:30:10.680Z,8.30
2018-03-06T14:32:38.169Z,8.20
2018-03-06T14:35:05.685Z,8.20
2018-03-06T14:37:33.948Z,8.20
2018-03-06T14:40:01.432Z,8.20
2018-03-06T14:42:30.615Z,8.10
2018-03-06T14:44:58.856Z,8.10
2018-03-06T14:47:26.357Z,8.10
2018-03-06T14:49:54.596Z,8.00
2018-03-06T14:52:22.090Z,8.00
2018-03-06T14:54:50.342Z,8.00
2018-03-06T14:57:19.502Z,8.00
2018-03-06T14:59:46.985Z,8.00
2018-03-06T15:02:14.484Z,8.00
2018-03-06T15:04:42.745Z,7.90
2018-03-06T15:07:10.981Z,7.90
2018-03-06T15:09:38.485Z,7.90
2018-03-06T15:12:06.716Z,7.90
2018-03-06T15:14:34.192Z,7.90
2018-03-06T15:17:02.498Z,7.90
2018-03-06T15:22:24.197Z,7.70
2018-03-06T15:24:51.703Z,7.70
2018-03-06T15:27:19.942Z,7.70
2018-03-06T15:29:47.459Z,7.70
2018-03-06T15:32:14.938Z,7.70
2018-03-06T15:34:42.433Z,7.70
2018-03-06T15:37:09.994Z,7.60
2018-03-06T15:39:38.280Z,7.60
2018-03-06T15:42:06.511Z,7.60
2018-03-06T15:44:34.008Z,7.60
2018-03-06T15:47:02.286Z,7.60
2018-03-06T15:49:30.553Z,7.50
2018-03-06T15:51:58.036Z,7.50
2018-03-06T15:54:25.520Z,7.50
2018-03-06T15:56:53.000Z,7.50
2018-03-06T15:59:20.499Z,7.40
2018-03-06T16:01:48.746Z,7.30
2018-03-06T16:04:16.233Z,7.30
2018-03-06T16:06:44.483Z,7.20
2018-03-06T16:09:11.986Z,7.20
2018-03-06T16:11:39.469Z,7.20
2018-03-06T16:14:06.943Z,7.20
2018-03-06T16:16:34.417Z,7.10
2018-03-06T16:19:03.418Z,7.00
2018-03-06T16:21:30.917Z,7.00
2018-03-06T16:23:58.413Z,6.90
2018-03-06T16:26:25.935Z,6.90
2018-03-06T16:28:53.426Z,6.80
2018-03-06T16:31:20.914Z,6.80
2018-03-06T16:33:49.203Z,6.70
2018-03-06T16:36:17.466Z,6.60
2018-03-06T16:38:44.958Z,6.60
2018-03-06T16:41:12.460Z,6.60
2018-03-06T16:43:39.942Z,6.50
2018-03-06T16:46:08.224Z,6.40
2018-03-06T16:48:36.476Z,6.30
2018-03-06T16:51:03.968Z,6.30
2018-03-06T16:53:32.236Z,6.20
2018-03-06T16:56:00.493Z,6.10
2018-03-06T16:58:27.972Z,6.10
2018-03-06T17:00:56.249Z,6.00
2018-03-06T17:03:24.493Z,5.90
2018-03-06T17:05:52.002Z,5.90
2018-03-06T17:08:19.480Z,5.80
2018-03-06T17:10:46.957Z,5.70
2018-03-06T17:13:14.438Z,5.70
2018-03-06T17:15:41.930Z,5.50
2018-03-06T17:18:09.400Z,5.50
2018-03-06T17:20:36.873Z,5.40
2018-03-06T17:23:04.369Z,5.40
2018-03-06T17:25:33.164Z,5.20
2018-03-06T17:28:01.434Z,5.20
2018-03-06T17:30:28.931Z,5.20
2018-03-06T17:32:56.419Z,5.10
2018-03-06T17:35:23.951Z,5.10
2018-03-06T17:37:51.436Z,5.00
2018-03-06T17:40:18.917Z,4.90
2018-03-06T17:42:46.409Z,4.90
2018-03-06T17:45:14.649Z,4.80
2018-03-06T17:47:42.146Z,4.80
2018-03-06T17:50:09.622Z,4.70
2018-03-06T17:52:37.131Z,4.70
2018-03-06T17:55:04.610Z,4.60
2018-03-06T17:57:32.871Z,4.50
2018-03-06T18:00:00.344Z,4.50
2018-03-06T18:02:28.631Z,4.50
2018-03-06T18:04:56.105Z,4.40
2018-03-06T18:07:23.635Z,4.40
2018-03-06T18:09:51.082Z,4.40
2018-03-06T18:12:19.334Z,4.30
2018-03-06T18:14:46.811Z,4.30
2018-03-06T18:17:14.314Z,4.30
2018-03-06T18:19:41.835Z,4.30
2018-03-06T18:22:10.088Z,4.20
2018-03-06T18:24:37.577Z,4.20
2018-03-06T18:27:05.839Z,4.10
2018-03-06T18:29:33.309Z,4.20
2018-03-06T18:32:01.564Z,4.10
2018-03-06T18:34:29.027Z,4.10
2018-03-06T18:36:56.509Z,4.10
2018-03-06T18:39:25.869Z,4.10
2018-03-06T18:41:53.366Z,4.00
2018-03-06T18:44:20.856Z,4.00
2018-03-06T18:46:48.817Z,4.00
2018-03-06T18:49:16.338Z,3.90
2018-03-06T18:51:43.795Z,3.90
2018-03-06T18:54:12.043Z,3.90
2018-03-06T18:56:39.534Z,3.90
2018-03-06T18:59:07.767Z,3.90
2018-03-06T19:01:57.987Z,3.90
2018-03-06T19:04:37.324Z,3.90
2018-03-06T19:07:06.777Z,3.90
2018-03-06T19:09:34.267Z,3.90
2018-03-06T19:12:01.752Z,3.90
2018-03-06T19:14:30.153Z,3.90
2018-03-06T19:16:57.643Z,3.90
2018-03-06T19:19:25.410Z,3.80
2018-03-06T19:21:52.918Z,3.80
2018-03-06T19:24:21.202Z,3.80
2018-03-06T19:26:49.467Z,3.80
2018-03-06T19:29:17.736Z,3.70
2018-03-06T19:31:46.015Z,3.70
2018-03-06T19:34:14.294Z,3.70
2018-03-06T19:36:41.812Z,3.70
2018-03-06T19:39:09.317Z,3.70
2018-03-06T19:41:37.574Z,3.70
2018-03-06T19:44:06.588Z,3.70
2018-03-06T19:46:34.875Z,3.80
2018-03-06T19:49:02.462Z,3.70
2018-03-06T19:51:29.951Z,3.80
2018-03-06T19:53:58.968Z,3.80
2018-03-06T19:56:28.208Z,3.80
2018-03-06T19:58:55.711Z,3.80
2018-03-06T20:01:23.230Z,3.90
2018-03-06T20:03:51.763Z,3.90
2018-03-06T20:06:20.895Z,3.90
2018-03-06T20:08:48.405Z,3.90
2018-03-06T20:11:18.318Z,3.90
2018-03-06T20:13:45.822Z,3.90
2018-03-06T20:16:13.326Z,3.90
2018-03-06T20:18:40.838Z,3.90
2018-03-06T20:21:08.336Z,3.90
2018-03-06T20:23:35.849Z,3.90
2018-03-06T20:26:03.349Z,3.90
2018-03-06T20:28:30.840Z,3.90
2018-03-06T20:31:04.730Z,3.90
2018-03-06T20:33:33.226Z,3.80
2018-03-06T20:36:02.210Z,3.90
2018-03-06T20:38:35.516Z,3.90
2018-03-06T20:41:03.012Z,3.90
2018-03-06T20:43:30.514Z,3.90
2018-03-06T20:46:03.649Z,3.90
2018-03-06T20:48:31.176Z,3.90
2018-03-06T20:50:59.431Z,3.90
2018-03-06T20:53:32.753Z,3.90
2018-03-06T20:56:01.010Z,3.80
2018-03-06T20:58:28.491Z,3.80
2018-03-06T21:00:56.756Z,3.80
2018-03-06T21:03:25.051Z,3.80
2018-03-06T21:05:53.337Z,3.80
2018-03-06T21:08:20.839Z,3.80
2018-03-06T21:10:48.348Z,3.80
2018-03-06T21:13:16.617Z,3.80
2018-03-06T21:15:44.896Z,3.80
2018-03-06T21:18:13.174Z,3.80
2018-03-06T21:20:41.438Z,3.70
2018-03-06T21:23:09.722Z,3.70
2018-03-06T21:25:37.993Z,3.70
2018-03-06T21:28:06.245Z,3.70
2018-03-06T21:30:33.743Z,3.70
2018-03-06T21:33:01.228Z,3.70
2018-03-06T21:35:28.724Z,3.70
2018-03-06T21:37:56.223Z,3.70
2018-03-06T21:40:23.723Z,3.70
2018-03-06T21:42:51.205Z,3.70
2018-03-06T21:45:18.749Z,3.70
2018-03-06T21:47:46.237Z,3.60
2018-03-06T21:50:14.510Z,3.60
2018-03-06T21:52:42.753Z,3.60
2018-03-06T21:55:11.490Z,3.60
2018-03-06T21:57:39.038Z,3.60
2018-03-06T22:00:06.544Z,3.60
2018-03-06T22:02:34.017Z,3.60
2018-03-06T22:05:01.548Z,3.60
2018-03-06T22:07:29.023Z,3.60
2018-03-06T22:09:56.514Z,3.60
2018-03-06T22:12:24.000Z,3.60
2018-03-06T22:14:51.486Z,3.60
2018-03-06T22:17:20.496Z,3.60
2018-03-06T22:19:47.984Z,3.60
2018-03-06T22:22:15.479Z,3.60
2018-03-06T22:24:42.985Z,3.50
2018-03-06T22:27:11.997Z,3.50
2018-03-06T22:29:42.996Z,3.50
2018-03-06T22:32:10.527Z,3.40
2018-03-06T22:34:37.984Z,3.50
2018-03-06T22:37:05.499Z,3.40
2018-03-06T22:39:32.989Z,3.40
2018-03-06T22:42:00.466Z,3.40
2018-03-06T22:44:27.942Z,3.40
2018-03-06T22:46:55.575Z,3.50
2018-03-06T22:49:23.054Z,3.40
2018-03-06T22:51:50.553Z,3.40
2018-03-06T22:54:18.033Z,3.40
2018-03-06T22:56:46.344Z,3.40
2018-03-06T22:59:13.818Z,3.40
2018-03-06T23:01:41.305Z,3.40
2018-03-06T23:04:08.776Z,3.40
2018-03-06T23:06:37.025Z,3.40
2018-03-06T23:09:04.513Z,3.40
2018-03-06T23:11:32.767Z,3.40
2018-03-06T23:14:00.233Z,3.40
2018-03-06T23:16:28.520Z,3.40
2018-03-06T23:18:56.757Z,3.40
2018-03-06T23:21:25.097Z,3.40
2018-03-06T23:23:53.521Z,3.50
2018-03-06T23:26:21.019Z,3.40
2018-03-06T23:28:49.262Z,3.40
2018-03-06T23:31:16.754Z,3.40
2018-03-06T23:33:45.034Z,3.40
2018-03-06T23:36:12.530Z,3.40
2018-03-06T23:38:40.018Z,3.40
2018-03-06T23:41:07.524Z,3.40
2018-03-06T23:43:35.132Z,3.40
2018-03-06T23:46:02.635Z,3.40
2018-03-06T23:48:30.133Z,3.40
2018-03-06T23:50:57.622Z,3.40
2018-03-06T23:53:25.886Z,3.40
2018-03-06T23:55:53.367Z,3.40
2018-03-06T23:58:21.641Z,3.40
